sensor_id;sensor_type;location;lat;lon;timestamp;pressure;altitude;pressure_sealevel;temperature;humidity
10310;BME280;5200;43.236;27.986;2023-01-29T00:01:27;100155.19;;;-0.76;100.00
10310;BME280;5200;43.236;27.986;2023-01-29T00:03:54;100139.00;;;-0.80;100.00
10310;BME280;5200;43.236;27.986;2023-01-29T00:06:21;100154.16;;;-0.72;100.00
10310;BME280;5200;43.236;27.986;2023-01-29T00:08:50;100129.06;;;-0.91;100.00
10310;BME280;5200;43.236;27.986;2023-01-29T00:11:17;100137.75;;;-0.92;100.00
10310;BME280;5200;43.236;27.986;2023-01-29T00:13:45;100130.88;;;-0.93;100.00
10310;BME280;5200;43.236;27.986;2023-01-29T00:16:12;100162.16;;;-0.78;100.00
10310;BME280;5200;43.236;27.986;2023-01-29T00:18:40;100127.50;;;-0.95;100.00
10310;BME280;5200;43.236;27.986;2023-01-29T00:21:08;100136.63;;;-0.86;100.00
10310;BME280;5200;43.236;27.986;2023-01-29T00:23:35;100160.41;;;-0.78;100.00
10310;BME280;5200;43.236;27.986;2023-01-29T00:26:04;100117.44;;;-1.01;100.00
10310;BME280;5200;43.236;27.986;2023-01-29T00:28:31;100128.47;;;-0.97;100.00
10310;BME280;5200;43.236;27.986;2023-01-29T00:31:05;100153.88;;;-0.87;100.00
10310;BME280;5200;43.236;27.986;2023-01-29T00:33:32;100133.00;;;-1.02;100.00
10310;BME280;5200;43.236;27.986;2023-01-29T00:36:01;100162.47;;;-0.86;100.00
10310;BME280;5200;43.236;27.986;2023-01-29T00:38:28;100169.38;;;-0.87;100.00
10310;BME280;5200;43.236;27.986;2023-01-29T00:40:55;100165.09;;;-0.88;100.00
10310;BME280;5200;43.236;27.986;2023-01-29T00:43:40;100173.63;;;-0.86;100.00
10310;BME280;5200;43.236;27.986;2023-01-29T00:46:25;100166.72;;;-0.85;100.00
10310;BME280;5200;43.236;27.986;2023-01-29T00:48:51;100149.31;;;-1.02;100.00
10310;BME280;5200;43.236;27.986;2023-01-29T00:51:18;100176.34;;;-0.89;100.00
10310;BME280;5200;43.236;27.986;2023-01-29T00:53:45;100176.41;;;-0.90;100.00
10310;BME280;5200;43.236;27.986;2023-01-29T00:56:12;100143.50;;;-1.07;100.00
10310;BME280;5200;43.236;27.986;2023-01-29T00:58:40;100173.78;;;-0.89;100.00
10310;BME280;5200;43.236;27.986;2023-01-29T01:01:07;100135.63;;;-1.04;100.00
10310;BME280;5200;43.236;27.986;2023-01-29T01:03:34;100148.47;;;-1.02;100.00
10310;BME280;5200;43.236;27.986;2023-01-29T01:06:08;100183.13;;;-0.86;100.00
10310;BME280;5200;43.236;27.986;2023-01-29T01:08:35;100175.53;;;-0.89;100.00
10310;BME280;5200;43.236;27.986;2023-01-29T01:11:20;100178.75;;;-0.84;100.00
10310;BME280;5200;43.236;27.986;2023-01-29T01:13:48;100139.00;;;-1.02;100.00
10310;BME280;5200;43.236;27.986;2023-01-29T01:16:17;100171.19;;;-0.89;100.00
10310;BME280;5200;43.236;27.986;2023-01-29T01:18:45;100177.13;;;-0.87;100.00
10310;BME280;5200;43.236;27.986;2023-01-29T01:21:11;100179.72;;;-0.87;100.00
10310;BME280;5200;43.236;27.986;2023-01-29T01:23:38;100148.66;;;-1.07;100.00
10310;BME280;5200;43.236;27.986;2023-01-29T01:26:08;100169.63;;;-0.93;100.00
10310;BME280;5200;43.236;27.986;2023-01-29T01:28:35;100148.00;;;-1.12;100.00
10310;BME280;5200;43.236;27.986;2023-01-29T01:31:09;100154.84;;;-1.11;100.00
10310;BME280;5200;43.236;27.986;2023-01-29T01:33:36;100167.41;;;-1.02;100.00
10310;BME280;5200;43.236;27.986;2023-01-29T01:36:04;100151.47;;;-1.13;100.00
10310;BME280;5200;43.236;27.986;2023-01-29T01:38:35;100141.84;;;-1.08;100.00
10310;BME280;5200;43.236;27.986;2023-01-29T01:41:09;100172.81;;;-1.08;100.00
10310;BME280;5200;43.236;27.986;2023-01-29T01:43:48;100161.88;;;-1.15;100.00
10310;BME280;5200;43.236;27.986;2023-01-29T01:46:16;100152.50;;;-1.17;100.00
10310;BME280;5200;43.236;27.986;2023-01-29T01:48:44;100175.94;;;-1.00;100.00
10310;BME280;5200;43.236;27.986;2023-01-29T01:51:12;100142.41;;;-1.23;100.00
10310;BME280;5200;43.236;27.986;2023-01-29T01:53:43;100193.22;;;-1.02;100.00
10310;BME280;5200;43.236;27.986;2023-01-29T01:56:16;100177.72;;;-1.02;100.00
10310;BME280;5200;43.236;27.986;2023-01-29T01:58:48;100170.16;;;-1.07;100.00
10310;BME280;5200;43.236;27.986;2023-01-29T02:01:19;100181.22;;;-1.03;100.00
10310;BME280;5200;43.236;27.986;2023-01-29T02:03:55;100149.16;;;-1.19;100.00
10310;BME280;5200;43.236;27.986;2023-01-29T02:06:42;100167.09;;;-1.16;100.00
10310;BME280;5200;43.236;27.986;2023-01-29T02:09:31;100184.09;;;-1.11;100.00
10310;BME280;5200;43.236;27.986;2023-01-29T02:12:02;100167.75;;;-1.11;100.00
10310;BME280;5200;43.236;27.986;2023-01-29T02:14:29;100129.22;;;-1.38;100.00
10310;BME280;5200;43.236;27.986;2023-01-29T02:17:00;100171.59;;;-1.21;100.00
10310;BME280;5200;43.236;27.986;2023-01-29T02:19:40;100170.03;;;-1.25;100.00
10310;BME280;5200;43.236;27.986;2023-01-29T02:22:25;100153.69;;;-1.48;100.00
10310;BME280;5200;43.236;27.986;2023-01-29T02:25:02;100184.06;;;-1.33;100.00
10310;BME280;5200;43.236;27.986;2023-01-29T02:30:22;100186.00;;;-1.38;100.00
10310;BME280;5200;43.236;27.986;2023-01-29T02:32:59;100147.41;;;-1.64;100.00
10310;BME280;5200;43.236;27.986;2023-01-29T02:35:34;100141.53;;;-1.68;100.00
10310;BME280;5200;43.236;27.986;2023-01-29T02:38:11;100163.41;;;-1.55;100.00
10310;BME280;5200;43.236;27.986;2023-01-29T02:40:45;100174.88;;;-1.40;100.00
10310;BME280;5200;43.236;27.986;2023-01-29T02:43:21;100185.88;;;-1.35;100.00
10310;BME280;5200;43.236;27.986;2023-01-29T02:46:00;100177.16;;;-1.32;100.00
10310;BME280;5200;43.236;27.986;2023-01-29T02:48:36;100200.78;;;-1.19;100.00
10310;BME280;5200;43.236;27.986;2023-01-29T02:51:09;100187.22;;;-1.24;100.00
10310;BME280;5200;43.236;27.986;2023-01-29T02:53:45;100165.22;;;-1.35;100.00
10310;BME280;5200;43.236;27.986;2023-01-29T02:56:17;100155.81;;;-1.36;100.00
10310;BME280;5200;43.236;27.986;2023-01-29T02:58:49;100168.72;;;-1.36;100.00
10310;BME280;5200;43.236;27.986;2023-01-29T03:01:22;100154.22;;;-1.40;100.00
10310;BME280;5200;43.236;27.986;2023-01-29T03:03:58;100109.72;;;-1.68;100.00
10310;BME280;5200;43.236;27.986;2023-01-29T03:06:31;100160.66;;;-1.50;100.00
10310;BME280;5200;43.236;27.986;2023-01-29T03:09:00;100154.81;;;-1.55;100.00
10310;BME280;5200;43.236;27.986;2023-01-29T03:11:33;100197.44;;;-1.45;100.00
10310;BME280;5200;43.236;27.986;2023-01-29T03:14:04;100164.94;;;-1.74;100.00
10310;BME280;5200;43.236;27.986;2023-01-29T03:16:38;100182.59;;;-1.62;100.00
10310;BME280;5200;43.236;27.986;2023-01-29T03:19:09;100202.72;;;-1.48;100.00
10310;BME280;5200;43.236;27.986;2023-01-29T03:21:40;100160.50;;;-1.69;100.00
10310;BME280;5200;43.236;27.986;2023-01-29T03:24:29;100206.06;;;-1.46;100.00
10310;BME280;5200;43.236;27.986;2023-01-29T03:27:17;100196.88;;;-1.53;100.00
10310;BME280;5200;43.236;27.986;2023-01-29T03:30:04;100200.16;;;-1.48;100.00
10310;BME280;5200;43.236;27.986;2023-01-29T03:32:52;100206.84;;;-1.44;100.00
10310;BME280;5200;43.236;27.986;2023-01-29T03:35:23;100170.66;;;-1.64;100.00
10310;BME280;5200;43.236;27.986;2023-01-29T03:38:00;100170.47;;;-1.60;100.00
10310;BME280;5200;43.236;27.986;2023-01-29T03:40:30;100208.25;;;-1.35;100.00
10310;BME280;5200;43.236;27.986;2023-01-29T03:43:06;100170.97;;;-1.50;100.00
10310;BME280;5200;43.236;27.986;2023-01-29T03:45:40;100203.06;;;-1.34;100.00
10310;BME280;5200;43.236;27.986;2023-01-29T03:48:17;100197.81;;;-1.56;100.00
10310;BME280;5200;43.236;27.986;2023-01-29T03:50:55;100202.03;;;-1.53;100.00
10310;BME280;5200;43.236;27.986;2023-01-29T03:53:28;100199.91;;;-1.42;100.00
10310;BME280;5200;43.236;27.986;2023-01-29T03:56:00;100185.94;;;-1.60;100.00
10310;BME280;5200;43.236;27.986;2023-01-29T03:58:33;100218.09;;;-1.45;100.00
10310;BME280;5200;43.236;27.986;2023-01-29T04:01:09;100174.19;;;-1.67;100.00
10310;BME280;5200;43.236;27.986;2023-01-29T04:03:40;100216.75;;;-1.55;100.00
10310;BME280;5200;43.236;27.986;2023-01-29T04:06:10;100201.81;;;-1.47;100.00
10310;BME280;5200;43.236;27.986;2023-01-29T04:08:46;100221.63;;;-1.47;100.00
10310;BME280;5200;43.236;27.986;2023-01-29T04:11:16;100196.50;;;-1.66;100.00
10310;BME280;5200;43.236;27.986;2023-01-29T04:13:44;100214.34;;;-1.60;100.00
10310;BME280;5200;43.236;27.986;2023-01-29T04:16:15;100230.31;;;-1.50;100.00
10310;BME280;5200;43.236;27.986;2023-01-29T04:18:46;100233.75;;;-1.50;100.00
10310;BME280;5200;43.236;27.986;2023-01-29T04:21:14;100241.47;;;-1.50;100.00
10310;BME280;5200;43.236;27.986;2023-01-29T04:23:41;100232.91;;;-1.50;100.00
10310;BME280;5200;43.236;27.986;2023-01-29T04:26:36;100236.38;;;-1.51;100.00
10310;BME280;5200;43.236;27.986;2023-01-29T04:29:29;100238.06;;;-1.50;100.00
10310;BME280;5200;43.236;27.986;2023-01-29T04:32:03;100207.75;;;-1.68;100.00
10310;BME280;5200;43.236;27.986;2023-01-29T04:34:40;100207.75;;;-1.68;100.00
10310;BME280;5200;43.236;27.986;2023-01-29T04:37:15;100200.06;;;-1.70;100.00
10310;BME280;5200;43.236;27.986;2023-01-29T04:39:48;100188.78;;;-1.67;100.00
10310;BME280;5200;43.236;27.986;2023-01-29T04:42:25;100196.50;;;-1.66;100.00
10310;BME280;5200;43.236;27.986;2023-01-29T04:44:59;100237.09;;;-1.47;100.00
10310;BME280;5200;43.236;27.986;2023-01-29T04:47:32;100239.84;;;-1.52;100.00
10310;BME280;5200;43.236;27.986;2023-01-29T04:50:12;100221.00;;;-1.54;100.00
10310;BME280;5200;43.236;27.986;2023-01-29T04:52:46;100206.94;;;-1.69;100.00
10310;BME280;5200;43.236;27.986;2023-01-29T04:55:20;100239.72;;;-1.49;100.00
10310;BME280;5200;43.236;27.986;2023-01-29T04:57:56;100241.69;;;-1.56;100.00
10310;BME280;5200;43.236;27.986;2023-01-29T05:00:31;100220.66;;;-1.68;100.00
10310;BME280;5200;43.236;27.986;2023-01-29T05:02:59;100244.59;;;-1.65;100.00
10310;BME280;5200;43.236;27.986;2023-01-29T05:05:29;100261.97;;;-1.45;100.00
10310;BME280;5200;43.236;27.986;2023-01-29T05:07:57;100259.66;;;-1.53;100.00
10310;BME280;5200;43.236;27.986;2023-01-29T05:10:25;100274.88;;;-1.45;100.00
10310;BME280;5200;43.236;27.986;2023-01-29T05:12:56;100244.72;;;-1.68;100.00
10310;BME280;5200;43.236;27.986;2023-01-29T05:15:29;100264.75;;;-1.51;100.00
10310;BME280;5200;43.236;27.986;2023-01-29T05:17:59;100282.72;;;-1.48;100.00
10310;BME280;5200;43.236;27.986;2023-01-29T05:20:30;100255.06;;;-1.70;100.00
10310;BME280;5200;43.236;27.986;2023-01-29T05:22:58;100215.50;;;-1.94;100.00
10310;BME280;5200;43.236;27.986;2023-01-29T05:25:28;100268.56;;;-1.61;100.00
10310;BME280;5200;43.236;27.986;2023-01-29T05:27:55;100292.25;;;-1.50;100.00
10310;BME280;5200;43.236;27.986;2023-01-29T05:30:33;100308.63;;;-1.51;100.00
10310;BME280;5200;43.236;27.986;2023-01-29T05:33:00;100274.72;;;-1.65;100.00
10310;BME280;5200;43.236;27.986;2023-01-29T05:35:29;100305.22;;;-1.52;100.00
10310;BME280;5200;43.236;27.986;2023-01-29T05:37:56;100296.56;;;-1.51;100.00
10310;BME280;5200;43.236;27.986;2023-01-29T05:40:23;100293.13;;;-1.51;100.00
10310;BME280;5200;43.236;27.986;2023-01-29T05:42:50;100300.69;;;-1.45;100.00
10310;BME280;5200;43.236;27.986;2023-01-29T05:45:17;100279.88;;;-1.65;100.00
10310;BME280;5200;43.236;27.986;2023-01-29T05:47:45;100272.63;;;-1.54;100.00
10310;BME280;5200;43.236;27.986;2023-01-29T05:50:13;100280.31;;;-1.53;100.00
10310;BME280;5200;43.236;27.986;2023-01-29T05:52:41;100322.63;;;-1.33;100.00
10310;BME280;5200;43.236;27.986;2023-01-29T05:55:09;100276.78;;;-1.50;100.00
10310;BME280;5200;43.236;27.986;2023-01-29T05:57:36;100324.94;;;-1.25;100.00
10310;BME280;5200;43.236;27.986;2023-01-29T06:00:04;100291.94;;;-1.41;100.00
10310;BME280;5200;43.236;27.986;2023-01-29T06:02:31;100312.44;;;-1.36;100.00
10310;BME280;5200;43.236;27.986;2023-01-29T06:04:58;100329.66;;;-1.13;100.00
10310;BME280;5200;43.236;27.986;2023-01-29T06:07:25;100342.50;;;-1.12;100.00
10310;BME280;5200;43.236;27.986;2023-01-29T06:09:53;100322.81;;;-1.14;100.00
10310;BME280;5200;43.236;27.986;2023-01-29T06:12:20;100299.28;;;-1.30;100.00
10310;BME280;5200;43.236;27.986;2023-01-29T06:14:47;100309.44;;;-1.25;100.00
10310;BME280;5200;43.236;27.986;2023-01-29T06:17:14;100328.09;;;-1.17;100.00
10310;BME280;5200;43.236;27.986;2023-01-29T06:19:41;100334.66;;;-1.09;100.00
10310;BME280;5200;43.236;27.986;2023-01-29T06:22:08;100323.03;;;-1.20;100.00
10310;BME280;5200;43.236;27.986;2023-01-29T06:24:35;100350.59;;;-0.97;100.00
10310;BME280;5200;43.236;27.986;2023-01-29T06:27:03;100319.41;;;-1.15;100.00
10310;BME280;5200;43.236;27.986;2023-01-29T06:29:30;100327.81;;;-1.10;100.00
10310;BME280;5200;43.236;27.986;2023-01-29T06:31:56;100329.44;;;-1.07;100.00
10310;BME280;5200;43.236;27.986;2023-01-29T06:34:23;100360.44;;;-0.83;100.00
10310;BME280;5200;43.236;27.986;2023-01-29T06:36:50;100371.31;;;-0.75;100.00
10310;BME280;5200;43.236;27.986;2023-01-29T06:39:17;100357.63;;;-0.77;100.00
10310;BME280;5200;43.236;27.986;2023-01-29T06:41:44;100364.34;;;-0.73;100.00
10310;BME280;5200;43.236;27.986;2023-01-29T06:44:12;100345.84;;;-0.84;100.00
10310;BME280;5200;43.236;27.986;2023-01-29T06:46:39;100349.31;;;-0.86;100.00
10310;BME280;5200;43.236;27.986;2023-01-29T06:49:06;100344.00;;;-0.82;100.00
10310;BME280;5200;43.236;27.986;2023-01-29T06:51:33;100379.28;;;-0.58;100.00
10310;BME280;5200;43.236;27.986;2023-01-29T06:54:00;100376.38;;;-0.49;100.00
10310;BME280;5200;43.236;27.986;2023-01-29T06:56:27;100366.69;;;-0.44;100.00
10310;BME280;5200;43.236;27.986;2023-01-29T06:58:54;100302.69;;;-0.82;100.00
10310;BME280;5200;43.236;27.986;2023-01-29T07:01:22;100346.41;;;-0.54;100.00
10310;BME280;5200;43.236;27.986;2023-01-29T07:03:49;100369.81;;;-0.35;100.00
10310;BME280;5200;43.236;27.986;2023-01-29T07:06:16;100371.50;;;-0.34;100.00
10310;BME280;5200;43.236;27.986;2023-01-29T07:08:43;100374.03;;;-0.33;100.00
10310;BME280;5200;43.236;27.986;2023-01-29T07:11:11;100381.97;;;-0.37;100.00
10310;BME280;5200;43.236;27.986;2023-01-29T07:13:38;100339.50;;;-0.54;100.00
10310;BME280;5200;43.236;27.986;2023-01-29T07:16:05;100322.66;;;-0.64;100.00
10310;BME280;5200;43.236;27.986;2023-01-29T07:18:33;100341.19;;;-0.53;100.00
10310;BME280;5200;43.236;27.986;2023-01-29T07:21:03;100335.00;;;-0.49;100.00
10310;BME280;5200;43.236;27.986;2023-01-29T07:23:31;100354.28;;;-0.35;100.00
10310;BME280;5200;43.236;27.986;2023-01-29T07:26:00;100359.84;;;-0.45;100.00
10310;BME280;5200;43.236;27.986;2023-01-29T07:28:27;100342.97;;;-0.55;100.00
10310;BME280;5200;43.236;27.986;2023-01-29T07:30:55;100339.59;;;-0.57;100.00
10310;BME280;5200;43.236;27.986;2023-01-29T07:33:22;100373.53;;;-0.43;100.00
10310;BME280;5200;43.236;27.986;2023-01-29T07:35:51;100386.28;;;-0.38;100.00
10310;BME280;5200;43.236;27.986;2023-01-29T07:38:18;100355.91;;;-0.55;100.00
10310;BME280;5200;43.236;27.986;2023-01-29T07:40:45;100385.31;;;-0.35;100.00
10310;BME280;5200;43.236;27.986;2023-01-29T07:43:13;100384.81;;;-0.45;100.00
10310;BME280;5200;43.236;27.986;2023-01-29T07:45:40;100389.72;;;-0.37;100.00
10310;BME280;5200;43.236;27.986;2023-01-29T07:48:10;100371.13;;;-0.47;100.00
10310;BME280;5200;43.236;27.986;2023-01-29T07:50:38;100387.97;;;-0.37;100.00
10310;BME280;5200;43.236;27.986;2023-01-29T07:53:07;100377.50;;;-0.34;100.00
10310;BME280;5200;43.236;27.986;2023-01-29T07:55:36;100379.09;;;-0.30;100.00
10310;BME280;5200;43.236;27.986;2023-01-29T07:58:03;100370.09;;;-0.43;100.00
10310;BME280;5200;43.236;27.986;2023-01-29T08:00:30;100365.53;;;-0.36;100.00
10310;BME280;5200;43.236;27.986;2023-01-29T08:03:01;100390.03;;;-0.23;100.00
10310;BME280;5200;43.236;27.986;2023-01-29T08:05:29;100354.19;;;-0.32;100.00
10310;BME280;5200;43.236;27.986;2023-01-29T08:07:56;100410.47;;;-0.17;100.00
10310;BME280;5200;43.236;27.986;2023-01-29T08:10:24;100376.53;;;-0.31;100.00
10310;BME280;5200;43.236;27.986;2023-01-29T08:12:55;100368.97;;;-0.36;100.00
10310;BME280;5200;43.236;27.986;2023-01-29T08:15:22;100386.34;;;-0.17;100.00
10310;BME280;5200;43.236;27.986;2023-01-29T08:17:49;100365.00;;;-0.23;100.00
10310;BME280;5200;43.236;27.986;2023-01-29T08:20:17;100371.75;;;-0.18;100.00
10310;BME280;5200;43.236;27.986;2023-01-29T08:22:44;100403.56;;;0.06;100.00
10310;BME280;5200;43.236;27.986;2023-01-29T08:25:11;100414.09;;;0.01;100.00
10310;BME280;5200;43.236;27.986;2023-01-29T08:27:40;100428.78;;;0.01;100.00
10310;BME280;5200;43.236;27.986;2023-01-29T08:30:10;100406.75;;;-0.10;100.00
10310;BME280;5200;43.236;27.986;2023-01-29T08:32:37;100376.19;;;-0.22;100.00
10310;BME280;5200;43.236;27.986;2023-01-29T08:35:05;100410.00;;;-0.05;100.00
10310;BME280;5200;43.236;27.986;2023-01-29T08:37:32;100405.19;;;-0.14;100.00
10310;BME280;5200;43.236;27.986;2023-01-29T08:39:58;100415.41;;;-0.11;100.00
10310;BME280;5200;43.236;27.986;2023-01-29T08:42:25;100379.47;;;-0.40;100.00
10310;BME280;5200;43.236;27.986;2023-01-29T08:44:53;100392.31;;;-0.37;100.00
10310;BME280;5200;43.236;27.986;2023-01-29T08:47:20;100386.22;;;-0.36;100.00
10310;BME280;5200;43.236;27.986;2023-01-29T08:49:47;100399.03;;;-0.33;100.00
10310;BME280;5200;43.236;27.986;2023-01-29T08:52:14;100402.56;;;-0.36;100.00
10310;BME280;5200;43.236;27.986;2023-01-29T08:54:41;100410.34;;;-0.36;100.00
10310;BME280;5200;43.236;27.986;2023-01-29T08:57:08;100412.25;;;-0.19;100.00
10310;BME280;5200;43.236;27.986;2023-01-29T08:59:35;100413.34;;;-0.25;100.00
10310;BME280;5200;43.236;27.986;2023-01-29T09:02:04;100386.88;;;-0.31;100.00
10310;BME280;5200;43.236;27.986;2023-01-29T09:04:30;100387.84;;;-0.34;100.00
10310;BME280;5200;43.236;27.986;2023-01-29T09:06:57;100407.84;;;-0.15;100.00
10310;BME280;5200;43.236;27.986;2023-01-29T09:09:24;100414.50;;;-0.10;100.00
10310;BME280;5200;43.236;27.986;2023-01-29T09:11:51;100428.03;;;-0.03;100.00
10310;BME280;5200;43.236;27.986;2023-01-29T09:14:18;100404.84;;;-0.05;100.00
10310;BME280;5200;43.236;27.986;2023-01-29T09:16:45;100383.91;;;-0.20;100.00
10310;BME280;5200;43.236;27.986;2023-01-29T09:19:13;100414.03;;;0.03;100.00
10310;BME280;5200;43.236;27.986;2023-01-29T09:21:40;100391.00;;;-0.04;100.00
10310;BME280;5200;43.236;27.986;2023-01-29T09:24:07;100403.06;;;0.18;100.00
10310;BME280;5200;43.236;27.986;2023-01-29T09:26:35;100361.97;;;-0.12;100.00
10310;BME280;5200;43.236;27.986;2023-01-29T09:29:04;100380.88;;;-0.10;100.00
10310;BME280;5200;43.236;27.986;2023-01-29T09:31:31;100385.06;;;-0.07;100.00
10310;BME280;5200;43.236;27.986;2023-01-29T09:33:57;100335.09;;;-0.08;100.00
10310;BME280;5200;43.236;27.986;2023-01-29T09:36:26;100385.22;;;0.12;100.00
10310;BME280;5200;43.236;27.986;2023-01-29T09:38:52;100387.25;;;0.04;100.00
10310;BME280;5200;43.236;27.986;2023-01-29T09:41:30;100328.84;;;-0.24;100.00
10310;BME280;5200;43.236;27.986;2023-01-29T09:44:02;100337.34;;;-0.20;100.00
10310;BME280;5200;43.236;27.986;2023-01-29T09:46:34;100369.94;;;-0.16;100.00
10310;BME280;5200;43.236;27.986;2023-01-29T09:49:08;100392.44;;;0.04;100.00
10310;BME280;5200;43.236;27.986;2023-01-29T09:51:40;100384.59;;;-0.17;100.00
10310;BME280;5200;43.236;27.986;2023-01-29T09:54:15;100352.56;;;-0.13;100.00
10310;BME280;5200;43.236;27.986;2023-01-29T09:56:45;100379.06;;;-0.08;100.00
10310;BME280;5200;43.236;27.986;2023-01-29T09:59:13;100346.25;;;-0.28;100.00
10310;BME280;5200;43.236;27.986;2023-01-29T10:01:49;100355.63;;;-0.25;100.00
10310;BME280;5200;43.236;27.986;2023-01-29T10:04:44;100382.63;;;-0.10;100.00
10310;BME280;5200;43.236;27.986;2023-01-29T10:07:31;100375.88;;;-0.14;100.00
10310;BME280;5200;43.236;27.986;2023-01-29T10:10:25;100373.41;;;-0.17;100.00
10310;BME280;5200;43.236;27.986;2023-01-29T10:13:02;100334.75;;;-0.43;100.00
10310;BME280;5200;43.236;27.986;2023-01-29T10:15:41;100332.16;;;-0.43;100.00
10310;BME280;5200;43.236;27.986;2023-01-29T10:21:24;100350.47;;;-0.25;100.00
10310;BME280;5200;43.236;27.986;2023-01-29T10:23:59;100324.19;;;-0.36;100.00
10310;BME280;5200;43.236;27.986;2023-01-29T10:26:31;100372.31;;;-0.12;100.00
10310;BME280;5200;43.236;27.986;2023-01-29T10:29:01;100362.75;;;-0.10;100.00
10310;BME280;5200;43.236;27.986;2023-01-29T10:31:32;100342.06;;;-0.10;100.00
10310;BME280;5200;43.236;27.986;2023-01-29T10:34:09;100339.28;;;-0.26;100.00
10310;BME280;5200;43.236;27.986;2023-01-29T10:36:40;100322.56;;;-0.39;100.00
10310;BME280;5200;43.236;27.986;2023-01-29T10:39:14;100342.53;;;-0.20;100.00
10310;BME280;5200;43.236;27.986;2023-01-29T10:42:01;100328.66;;;-0.19;100.00
10310;BME280;5200;43.236;27.986;2023-01-29T10:44:39;100334.63;;;-0.17;100.00
10310;BME280;5200;43.236;27.986;2023-01-29T10:47:31;100277.72;;;-0.60;100.00
10310;BME280;5200;43.236;27.986;2023-01-29T10:50:14;100279.88;;;-0.49;100.00
10310;BME280;5200;43.236;27.986;2023-01-29T10:52:54;100302.56;;;-0.35;100.00
10310;BME280;5200;43.236;27.986;2023-01-29T10:55:38;100314.50;;;-0.31;100.00
10310;BME280;5200;43.236;27.986;2023-01-29T10:58:15;100306.06;;;-0.36;100.00
10310;BME280;5200;43.236;27.986;2023-01-29T11:00:45;100294.28;;;-0.44;100.00
10310;BME280;5200;43.236;27.986;2023-01-29T11:03:16;100275.13;;;-0.60;100.00
10310;BME280;5200;43.236;27.986;2023-01-29T11:05:50;100312.16;;;-0.37;100.00
10310;BME280;5200;43.236;27.986;2023-01-29T11:08:23;100318.66;;;-0.27;100.00
10310;BME280;5200;43.236;27.986;2023-01-29T11:11:06;100272.13;;;-0.49;100.00
10310;BME280;5200;43.236;27.986;2023-01-29T11:13:37;100328.34;;;-0.32;100.00
10310;BME280;5200;43.236;27.986;2023-01-29T11:16:07;100295.66;;;-0.57;100.00
10310;BME280;5200;43.236;27.986;2023-01-29T11:18:51;100330.34;;;-0.40;100.00
10310;BME280;5200;43.236;27.986;2023-01-29T11:21:19;100324.22;;;-0.60;100.00
10310;BME280;5200;43.236;27.986;2023-01-29T11:23:46;100323.28;;;-0.57;100.00
10310;BME280;5200;43.236;27.986;2023-01-29T11:26:18;100316.16;;;-0.74;100.00
10310;BME280;5200;43.236;27.986;2023-01-29T11:28:49;100335.03;;;-0.72;100.00
10310;BME280;5200;43.236;27.986;2023-01-29T11:31:20;100316.13;;;-0.73;100.00
10310;BME280;5200;43.236;27.986;2023-01-29T11:33:47;100324.53;;;-0.68;100.00
10310;BME280;5200;43.236;27.986;2023-01-29T11:36:20;100343.72;;;-0.51;100.00
10310;BME280;5200;43.236;27.986;2023-01-29T11:39:15;100356.22;;;-0.40;100.00
10310;BME280;5200;43.236;27.986;2023-01-29T11:41:47;100364.63;;;-0.35;100.00
10310;BME280;5200;43.236;27.986;2023-01-29T11:44:21;100343.81;;;-0.54;100.00
10310;BME280;5200;43.236;27.986;2023-01-29T11:46:52;100337.94;;;-0.58;100.00
10310;BME280;5200;43.236;27.986;2023-01-29T11:49:27;100328.38;;;-0.56;100.00
10310;BME280;5200;43.236;27.986;2023-01-29T11:51:58;100368.00;;;-0.33;100.00
10310;BME280;5200;43.236;27.986;2023-01-29T11:54:30;100369.81;;;-0.35;100.00
10310;BME280;5200;43.236;27.986;2023-01-29T11:57:00;100374.97;;;-0.35;100.00
10310;BME280;5200;43.236;27.986;2023-01-29T11:59:41;100343.81;;;-0.54;100.00
10310;BME280;5200;43.236;27.986;2023-01-29T12:02:20;100371.63;;;-0.37;100.00
10310;BME280;5200;43.236;27.986;2023-01-29T12:04:48;100348.22;;;-0.56;100.00
10310;BME280;5200;43.236;27.986;2023-01-29T12:07:17;100372.69;;;-0.43;100.00
10310;BME280;5200;43.236;27.986;2023-01-29T12:09:51;100347.13;;;-0.51;100.00
10310;BME280;5200;43.236;27.986;2023-01-29T12:12:38;100385.22;;;-0.32;100.00
10310;BME280;5200;43.236;27.986;2023-01-29T12:15:18;100369.94;;;-0.38;100.00
10310;BME280;5200;43.236;27.986;2023-01-29T12:17:56;100371.63;;;-0.37;100.00
10310;BME280;5200;43.236;27.986;2023-01-29T12:20:28;100397.47;;;-0.37;100.00
10310;BME280;5200;43.236;27.986;2023-01-29T12:23:02;100379.44;;;-0.39;100.00
10310;BME280;5200;43.236;27.986;2023-01-29T12:25:39;100374.00;;;-0.55;100.00
10310;BME280;5200;43.236;27.986;2023-01-29T12:31:10;100399.47;;;-0.44;100.00
10310;BME280;5200;43.236;27.986;2023-01-29T12:33:45;100407.03;;;-0.39;100.00
10310;BME280;5200;43.236;27.986;2023-01-29T12:36:18;100399.28;;;-0.39;100.00
10310;BME280;5200;43.236;27.986;2023-01-29T12:38:47;100379.84;;;-0.50;100.00
10310;BME280;5200;43.236;27.986;2023-01-29T12:41:24;100382.31;;;-0.47;100.00
10310;BME280;5200;43.236;27.986;2023-01-29T12:43:57;100392.53;;;-0.44;100.00
10310;BME280;5200;43.236;27.986;2023-01-29T12:46:27;100373.00;;;-0.51;100.00
10310;BME280;5200;43.236;27.986;2023-01-29T12:48:57;100390.75;;;-0.41;100.00
10310;BME280;5200;43.236;27.986;2023-01-29T12:51:30;100400.13;;;-0.39;100.00
10310;BME280;5200;43.236;27.986;2023-01-29T12:54:04;100384.59;;;-0.61;100.00
10310;BME280;5200;43.236;27.986;2023-01-29T12:56:36;100381.09;;;-0.60;100.00
10310;BME280;5200;43.236;27.986;2023-01-29T12:59:15;100415.84;;;-0.45;100.00
10310;BME280;5200;43.236;27.986;2023-01-29T13:01:46;100397.44;;;-0.59;100.00
10310;BME280;5200;43.236;27.986;2023-01-29T13:04:24;100415.13;;;-0.49;100.00
10310;BME280;5200;43.236;27.986;2023-01-29T13:07:00;100408.16;;;-0.47;100.00
10310;BME280;5200;43.236;27.986;2023-01-29T13:09:32;100397.94;;;-0.50;100.00
10310;BME280;5200;43.236;27.986;2023-01-29T13:12:06;100414.22;;;-0.48;100.00